tititudorancea.com
Station Historical Data
Daily Summary for February 13, 2018 Units:  Metric    English   Both
« Previous Day
Next Day »
Daily Weekly Monthly Yearly Custom
  High: Low: Average:
Temperature: -17.8 °C 10 °C 19.4 °C
Dew Point: -17.8 °C 5.9 °C 9.2 °C
Humidity: Humidity % 26 % 57 %
Wind Speed: 0 km/h 0 km/h 6.3 km/h
Wind Gust: 0 km/h - -
Wind:- - West
Pressure: 0 hPa 1004.3 hPa -
Precipitation: 0 mm    
Historical Graphs
 
 
Ararat weather Find more about Weather in Ararat, AU


 



 


Tabular Data for February 13, 2018
Time Temperature Dew Point Pressure Wind Wind Speed Wind Gust Humidity Rainfall Rate (Hourly)
-17.8 °C -17.8 °C 0 hPa Calm     Humidity % 0 mm
00:02 14.2 °C 10.6 °C 1012.1 hPa South 5.3 km/h 14.8 km/h 79 % 0 mm
00:07 14.1 °C 10.5 °C 1012.1 hPa South 10.9 km/h 14.8 km/h 79 % 0 mm
00:12 14.1 °C 10.5 °C 1012.1 hPa South 7.4 km/h 8 km/h 79 % 0 mm
00:17 14.2 °C 10.6 °C 1012.1 hPa South 10.6 km/h 13 km/h 79 % 0 mm
00:22 14.2 °C 10.6 °C 1012.1 hPa South 5 km/h 14.8 km/h 79 % 0 mm
00:27 14.2 °C 10.6 °C 1012.1 hPa South 10 km/h 16.7 km/h 79 % 0 mm
00:32 14.1 °C 10.5 °C 1011.7 hPa North 8 km/h 14.5 km/h 79 % 0 mm
00:37 14.1 °C 10.5 °C 1012.1 hPa North 6.3 km/h 11.3 km/h 79 % 0 mm
00:42 14 °C 10.4 °C 1011.7 hPa South 6.6 km/h 9.7 km/h 79 % 0 mm
00:47 13.9 °C 10.3 °C 1011.7 hPa South 6.6 km/h 9.7 km/h 79 % 0 mm
00:52 13.9 °C 10.5 °C 1011.7 hPa South 8.2 km/h 9.7 km/h 80 % 0 mm
00:58 13.8 °C 10.4 °C 1011.7 hPa South 7.9 km/h 11.1 km/h 80 % 0 mm
01:03 13.7 °C 10.3 °C 1011.7 hPa South 5.3 km/h 11.1 km/h 80 % 0 mm
01:07 13.6 °C 10.2 °C 1011.7 hPa South 3.7 km/h 5.6 km/h 80 % 0 mm
01:12 13.5 °C 10.1 °C 1011.7 hPa South 3.9 km/h 7.4 km/h 80 % 0 mm
01:17 13.4 °C 10.2 °C 1011.7 hPa South 7.9 km/h 7.9 km/h 81 % 0 mm
01:23 13.4 °C 10.2 °C 1011.7 hPa South 4.3 km/h 13 km/h 81 % 0 mm
01:27 13.4 °C 10.2 °C 1011.7 hPa South 3.9 km/h 5.6 km/h 81 % 0 mm
01:33 13.3 °C 10.2 °C 1011.7 hPa South 4.2 km/h 9.3 km/h 81 % 0 mm
01:38 13.3 °C 10.1 °C 1011.4 hPa South 3.5 km/h 9.3 km/h 81 % 0 mm
01:43 13.2 °C 10 °C 1011.4 hPa South 3.4 km/h 5.6 km/h 81 % 0 mm
01:48 13.1 °C 10.1 °C 1011.4 hPa North 4 km/h 7.4 km/h 82 % 0 mm
01:52 12.9 °C 9.9 °C 1011.4 hPa South 3.4 km/h 5.6 km/h 82 % 0 mm
01:57 12.7 °C 9.9 °C 1011.4 hPa South 4.2 km/h 6.4 km/h 83 % 0 mm
02:03 12.7 °C 9.8 °C 1011.4 hPa South 2.7 km/h 7.4 km/h 83 % 0 mm
02:07 12.7 °C 10.1 °C 1011.4 hPa North 5 km/h 7.4 km/h 84 % 0 mm
02:13 12.7 °C 10.1 °C 1011.4 hPa South 6.8 km/h 9.7 km/h 84 % 0 mm
02:18 12.8 °C 10.2 °C 1011.4 hPa South 4.2 km/h 5.6 km/h 84 % 0 mm
02:23 12.8 °C 10.2 °C 1011.4 hPa North 2.6 km/h 7.4 km/h 84 % 0 mm
02:28 12.8 °C 10.2 °C 1011.4 hPa South 4.8 km/h 7.4 km/h 84 % 0 mm
02:33 12.8 °C 10.2 °C 1011.4 hPa South 2.6 km/h 7.4 km/h 84 % 0 mm
02:38 12.8 °C 10.2 °C 1011.4 hPa South 2.3 km/h 3.7 km/h 84 % 0 mm
02:43 12.7 °C 10.1 °C 1011.4 hPa South 2.7 km/h 5.6 km/h 84 % 0 mm
02:48 12.7 °C 10.1 °C 1011.4 hPa South 2.1 km/h 5.6 km/h 84 % 0 mm
02:53 12.6 °C 10.2 °C 1011.1 hPa South 2.6 km/h 5.6 km/h 85 % 0 mm
02:58 12.5 °C 10.1 °C 1011.1 hPa South 2.1 km/h 5.6 km/h 85 % 0 mm
03:03 12.4 °C 10 °C 1011.1 hPa Calm   1.9 km/h 85 % 0 mm
03:08 12.4 °C 9.9 °C 1011.1 hPa Calm     85 % 0 mm
03:13 12.3 °C 9.8 °C 1011.1 hPa South 2.9 km/h 5.6 km/h 85 % 0 mm
03:18 12.2 °C 9.9 °C 1011.1 hPa South 1 km/h 3.7 km/h 86 % 0 mm
03:23 12.2 °C 9.9 °C 1010.7 hPa South 2.6 km/h 3.7 km/h 86 % 0 mm
03:28 12.1 °C 9.8 °C 1010.7 hPa South 4 km/h 5.6 km/h 86 % 0 mm
03:33 12.1 °C 9.9 °C 1010.7 hPa South 4.7 km/h 5.6 km/h 87 % 0 mm
03:38 11.9 °C 9.7 °C 1011.1 hPa South 4.7 km/h 7.4 km/h 86 % 0 mm
03:43 11.9 °C 9.8 °C 1011.1 hPa North 4.5 km/h 5.6 km/h 87 % 0 mm
03:48 11.9 °C 10 °C 1010.7 hPa South 5.3 km/h 5.6 km/h 88 % 0 mm
03:53 11.9 °C 9.9 °C 1010.7 hPa North 3.1 km/h 5.6 km/h 88 % 0 mm
03:58 11.8 °C 9.7 °C 1010.7 hPa North 3.4 km/h 5.6 km/h 87 % 0 mm
04:03 11.7 °C 9.7 °C 1010.7 hPa South 3.5 km/h 5.6 km/h 88 % 0 mm
04:08 11.6 °C 9.7 °C 1010.7 hPa North 3.4 km/h 5.6 km/h 88 % 0 mm
04:13 11.6 °C 9.6 °C 1010.4 hPa North 3.4 km/h 5.6 km/h 88 % 0 mm
04:18 11.6 °C 9.8 °C 1010.4 hPa North 2.9 km/h 5.6 km/h 89 % 0 mm
04:23 11.6 °C 9.8 °C 1010.4 hPa South 5.1 km/h 6.4 km/h 89 % 0 mm
04:28 11.6 °C 9.8 °C 1010.4 hPa South 5 km/h 5.6 km/h 89 % 0 mm
04:33 11.6 °C 9.8 °C 1010.4 hPa North 3.2 km/h 3.7 km/h 89 % 0 mm
04:38 11.7 °C 9.9 °C 1010.4 hPa North 3.2 km/h 5.6 km/h 89 % 0 mm
04:43 11.7 °C 9.9 °C 1010.4 hPa South 3.7 km/h 5.6 km/h 89 % 0 mm
04:48 11.7 °C 9.9 °C 1010.4 hPa South 2.1 km/h 3.7 km/h 89 % 0 mm
04:53 11.7 °C 9.9 °C 1010.4 hPa North 3.9 km/h 4.8 km/h 89 % 0 mm
04:58 11.6 °C 9.8 °C 1010.4 hPa North 3.4 km/h 5.6 km/h 89 % 0 mm
05:03 11.5 °C 9.7 °C 1010.4 hPa North 2.7 km/h 3.7 km/h 89 % 0 mm
05:08 11.4 °C 9.7 °C 1010 hPa South 3.5 km/h 4.8 km/h 89 % 0 mm
05:13 11.4 °C 9.8 °C 1010.4 hPa North 1.8 km/h 3.7 km/h 90 % 0 mm
05:18 11.4 °C 9.8 °C 1010.4 hPa Calm   1.9 km/h 90 % 0 mm
05:23 11.3 °C 9.7 °C 1010 hPa Calm   1.9 km/h 90 % 0 mm
05:28 11.3 °C 9.7 °C 1010 hPa Calm     90 % 0 mm
05:33 11.2 °C 9.7 °C 1010.4 hPa Calm     90 % 0 mm
05:38 11.1 °C 9.6 °C 1010.4 hPa Calm     90 % 0 mm
05:43 11.1 °C 9.5 °C 1010.4 hPa Calm     90 % 0 mm
05:48 10.9 °C 9.4 °C 1010.4 hPa Calm     90 % 0 mm
05:53 10.8 °C 9.2 °C 1010.4 hPa Calm     90 % 0 mm
05:58 10.8 °C 9.4 °C 1010.4 hPa Calm     91 % 0 mm
06:03 10.8 °C 9.4 °C 1010.4 hPa Calm     91 % 0 mm
06:08 10.8 °C 9.4 °C 1010.4 hPa Calm     91 % 0 mm
06:13 10.8 °C 9.4 °C 1010.4 hPa Calm     91 % 0 mm
06:18 10.8 °C 9.6 °C 1010.4 hPa Calm     92 % 0 mm
06:23 10.8 °C 9.6 °C 1010.4 hPa Calm     92 % 0 mm
06:28 10.8 °C 9.6 °C 1010.4 hPa Calm     92 % 0 mm
06:33 10.7 °C 9.5 °C 1010.7 hPa Calm     92 % 0 mm
06:38 10.7 °C 9.4 °C 1010.7 hPa Calm     92 % 0 mm
06:43 10.6 °C 9.4 °C 1010.4 hPa Calm     92 % 0 mm
06:48 10.4 °C 9.2 °C 1010.4 hPa Calm     92 % 0 mm
06:53 10.3 °C 9.1 °C 1010.4 hPa Calm     92 % 0 mm
06:58 10.3 °C 9.1 °C 1010.7 hPa Calm     92 % 0 mm
07:36 10 °C 8.9 °C 1011.1 hPa Calm     93 % 0 mm
07:41 10.1 °C 9 °C 1011.1 hPa Calm     93 % 0 mm
07:46 10.2 °C 9.2 °C 1011.1 hPa Calm     93 % 0 mm
07:52 10.4 °C 9.5 °C 1011.4 hPa Calm     94 % 0 mm
07:57 10.7 °C 9.7 °C 1011.1 hPa Calm     94 % 0 mm
08:02 11.2 °C 10.4 °C 1011.4 hPa Calm     95 % 0 mm
08:07 11.9 °C 11.1 °C 1011.4 hPa Calm     95 % 0 mm
08:12 12.6 °C 11.8 °C 1011.4 hPa Calm     95 % 0 mm
08:17 13 °C 12.1 °C 1011.4 hPa South 0.2 km/h 1.6 km/h 94 % 0 mm
08:22 13.2 °C 11.9 °C 1011.4 hPa North 2.6 km/h 5.6 km/h 92 % 0 mm
08:27 13.3 °C 12.1 °C 1011.1 hPa South 1 km/h 3.7 km/h 92 % 0 mm
08:32 13.6 °C 12 °C 1011.4 hPa South 3.5 km/h 5.6 km/h 90 % 0 mm
08:37 13.8 °C 12.5 °C 1011.4 hPa South 2.9 km/h 5.6 km/h 92 % 0 mm
08:42 14 °C 12.1 °C 1011.1 hPa South 2.1 km/h 4.8 km/h 88 % 0 mm
08:47 14.2 °C 12.2 °C 1011.4 hPa South 3.1 km/h 3.7 km/h 88 % 0 mm
08:52 14.6 °C 12.4 °C 1011.4 hPa Calm     87 % 0 mm
08:57 14.9 °C 12.3 °C 1011.4 hPa South 0.8 km/h 3.7 km/h 84 % 0 mm
09:02 15 °C 12.1 °C 1011.4 hPa South 1.8 km/h 3.7 km/h 83 % 0 mm
09:07 15.2 °C 12.3 °C 1011.4 hPa Calm     83 % 0 mm
09:12 15.4 °C 12.2 °C 1011.4 hPa Calm     81 % 0 mm
09:17 15.8 °C 12.3 °C 1011.4 hPa South 1.4 km/h 3.7 km/h 80 % 0 mm
09:22 16.3 °C 12.5 °C 1011.4 hPa South 2.6 km/h 5.6 km/h 78 % 0 mm
09:27 16.8 °C 12.2 °C 1011.4 hPa South 0.8 km/h 1.9 km/h 74 % 0 mm
09:32 17.2 °C 12.3 °C 1011.4 hPa South 1.4 km/h 5.6 km/h 73 % 0 mm
09:37 17.7 °C 12.6 °C 1011.4 hPa Calm   3.2 km/h 72 % 0 mm
09:42 18.6 °C 12.3 °C 1011.4 hPa South 5.5 km/h 5.6 km/h 67 % 0 mm
09:47 18.9 °C 12.2 °C 1011.1 hPa South 4 km/h 6.4 km/h 65 % 0 mm
09:52 19.1 °C 11.7 °C 1011.1 hPa South 3.5 km/h 4.8 km/h 62 % 0 mm
09:57 19.3 °C 11.6 °C 1011.1 hPa South 3.9 km/h 9.3 km/h 61 % 0 mm
10:02 19.4 °C 11.4 °C 1011.1 hPa South 3.7 km/h 5.6 km/h 60 % 0 mm
10:07 19.6 °C 11.6 °C 1011.1 hPa South 4 km/h 5.6 km/h 60 % 0 mm
10:12 19.7 °C 11.7 °C 1011.1 hPa Calm   1.9 km/h 60 % 0 mm
10:17 20.1 °C 11.6 °C 1011.1 hPa South 2.3 km/h 5.6 km/h 58 % 0 mm
10:22 20.3 °C 11.8 °C 1011.1 hPa South 2.1 km/h 5.6 km/h 58 % 0 mm
10:27 20.4 °C 11.1 °C 1011.4 hPa South 4.2 km/h 6.4 km/h 55 % 0 mm
10:32 20.4 °C 11.3 °C 1011.1 hPa South 2.1 km/h 3.7 km/h 56 % 0 mm
10:37 20.6 °C 11.4 °C 1011.1 hPa South 4.7 km/h 8 km/h 56 % 0 mm
10:42 21 °C 11.1 °C 1011.1 hPa NNE 9.5 km/h 12.9 km/h 53 % 0 mm
10:47 21.5 °C 10.9 °C 1011.1 hPa NNE 7.9 km/h 11.1 km/h 51 % 0 mm
10:52 21.8 °C 10.6 °C 1011.1 hPa NNW 10.9 km/h 18.5 km/h 49 % 0 mm
10:57 21.5 °C 10.3 °C 1011.1 hPa North 5 km/h 9.3 km/h 49 % 0 mm
11:02 21.4 °C 10.6 °C 1011.1 hPa NNW 6.8 km/h 11.1 km/h 50 % 0 mm
11:07 21.7 °C 10.2 °C 1011.1 hPa NW 5.5 km/h 8 km/h 48 % 0 mm
11:12 22.1 °C 10.6 °C 1010.7 hPa WNW 9 km/h 14.8 km/h 48 % 0 mm
11:17 22.4 °C 10.2 °C 1010.7 hPa NNW 10.1 km/h 16.7 km/h 46 % 0 mm
11:22 22.2 °C 10.3 °C 1010.7 hPa North 5.5 km/h 9.3 km/h 47 % 0 mm
11:27 21.9 °C 10.4 °C 1010.7 hPa WNW 10.5 km/h 13 km/h 48 % 0 mm
11:32 21.7 °C 10.2 °C 1010.7 hPa NW 12.1 km/h 18.5 km/h 48 % 0 mm
11:37 22.2 °C 10.4 °C 1010.7 hPa NW 5.1 km/h 11.3 km/h 47 % 0 mm
11:42 22 °C 9.8 °C 1010.7 hPa NW 7.2 km/h 11.1 km/h 46 % 0 mm
11:47 22.5 °C 10.3 °C 1010.4 hPa NNW 7.4 km/h 13 km/h 46 % 0 mm
11:52 22.9 °C 10.4 °C 1010.4 hPa NW 9.8 km/h 17.7 km/h 45 % 0 mm
11:57 22.8 °C 10.3 °C 1010.4 hPa WNW 14.3 km/h 16.7 km/h 45 % 0 mm
12:02 22.7 °C 10.2 °C 1010.4 hPa North 8.9 km/h 9.7 km/h 45 % 0 mm
12:07 22.7 °C 10.1 °C 1010.4 hPa NW 5.8 km/h 11.1 km/h 45 % 0 mm
12:12 22.7 °C 10.1 °C 1010 hPa North 6.3 km/h 13 km/h 45 % 0 mm
12:17 23.1 °C 9.8 °C 1010 hPa WNW 9.5 km/h 16.7 km/h 43 % 0 mm
12:22 23.7 °C 10.1 °C 1010 hPa NNW 9.5 km/h 14.8 km/h 42 % 0 mm
12:27 23.5 °C 9.8 °C 1010 hPa NNW 7.9 km/h 13 km/h 42 % 0 mm
12:32 23.9 °C 9.8 °C 1010 hPa NNW 14.2 km/h 16.1 km/h 41 % 0 mm
12:37 23.7 °C 9.3 °C 1010 hPa WNW 14.8 km/h 18.5 km/h 40 % 0 mm
12:42 23.4 °C 9.4 °C 1010 hPa North 2.4 km/h 7.4 km/h 41 % 0 mm
12:47 23.7 °C 9.3 °C 1009.7 hPa NNW 10.1 km/h 13 km/h 40 % 0 mm
12:52 23.8 °C 9.4 °C 1009.7 hPa North 10.5 km/h 13 km/h 40 % 0 mm
12:57 23.7 °C 8.9 °C 1009.7 hPa NW 15.1 km/h 18.5 km/h 39 % 0 mm
13:02 23.7 °C 9.3 °C 1009.4 hPa WNW 12.1 km/h 18.5 km/h 40 % 0 mm
13:07 24.1 °C 9.3 °C 1009.4 hPa WNW 6 km/h 9.3 km/h 39 % 0 mm
13:12 24.4 °C 9.6 °C 1009.4 hPa NW 15.3 km/h 18.5 km/h 39 % 0 mm
13:17 24.2 °C 9 °C 1009.4 hPa West 12.6 km/h 20.9 km/h 38 % 0 mm
13:22 24.5 °C 8.8 °C 1009.4 hPa NW 12.2 km/h 14.8 km/h 37 % 0 mm
13:27 24.2 °C 9 °C 1009.4 hPa NW 8.9 km/h 16.7 km/h 38 % 0 mm
13:32 24.2 °C 9 °C 1009 hPa North 10 km/h 16.7 km/h 38 % 0 mm
13:37 24.4 °C 9.2 °C 1009 hPa North 7.9 km/h 14.8 km/h 38 % 0 mm
13:42 24.8 °C 9.2 °C 1009 hPa North 13.2 km/h 20.4 km/h 37 % 0 mm
13:47 24.8 °C 9.5 °C 1008.7 hPa North 5.5 km/h 11.3 km/h 38 % 0 mm
13:52 25.1 °C 9 °C 1008.7 hPa North 13.5 km/h 14.5 km/h 36 % 0 mm
13:57 24.9 °C 9.2 °C 1008.7 hPa North 1.9 km/h 5.6 km/h 37 % 0 mm
14:02 25.5 °C 8.9 °C 1008.7 hPa West 16.1 km/h 25.9 km/h 35 % 0 mm
14:07 25.2 °C 9.1 °C 1008.7 hPa WNW 9.5 km/h 18.5 km/h 36 % 0 mm
14:12 25.3 °C 9.2 °C 1008.7 hPa NW 12.2 km/h 18.5 km/h 36 % 0 mm
14:17 25.6 °C 9 °C 1008.4 hPa NE 10.8 km/h 18.5 km/h 35 % 0 mm
14:22 25.6 °C 8.6 °C 1008.4 hPa NW 8.4 km/h 18.5 km/h 34 % 0 mm
14:27 25.7 °C 9.1 °C 1008.4 hPa WNW 15.1 km/h 20.4 km/h 35 % 0 mm
14:32 25.9 °C 9.3 °C 1008.4 hPa North 13.8 km/h 18.5 km/h 35 % 0 mm
14:37 25.9 °C 8.4 °C 1008.4 hPa WNW 7.1 km/h 18.5 km/h 33 % 0 mm
14:42 26.2 °C 9.1 °C 1008 hPa NW 8.9 km/h 12.9 km/h 34 % 0 mm
14:47 26.2 °C 8.7 °C 1008 hPa NW 9.8 km/h 11.3 km/h 33 % 0 mm
14:52 26.4 °C 8.8 °C 1008 hPa North 13.2 km/h 22.2 km/h 33 % 0 mm
14:57 26.6 °C 8.5 °C 1008 hPa NW 6.3 km/h 12.9 km/h 32 % 0 mm
15:02 26.3 °C 8.7 °C 1008 hPa North 6.3 km/h 24.1 km/h 33 % 0 mm
15:07 26.1 °C 7.7 °C 1008 hPa WNW 21.9 km/h 31.5 km/h 31 % 0 mm
15:12 26.1 °C 8.1 °C 1007.7 hPa NW 11.7 km/h 20.4 km/h 32 % 0 mm
15:17 26.2 °C 8.7 °C 1007.7 hPa WNW 14.3 km/h 16.7 km/h 33 % 0 mm
15:22 26.4 °C 8.4 °C 1007.7 hPa North 8.5 km/h 18.5 km/h 32 % 0 mm
15:27 26.6 °C 8.5 °C 1007.7 hPa NNW 12.9 km/h 18.5 km/h 32 % 0 mm
15:32 26.1 °C 8.1 °C 1007.3 hPa NNW 10 km/h 16.1 km/h 32 % 0 mm
15:37 26.2 °C 8.2 °C 1007.3 hPa NNW 14.2 km/h 16.7 km/h 32 % 0 mm
15:42 26.6 °C 8.1 °C 1007.3 hPa NW 14.3 km/h 14.8 km/h 31 % 0 mm
15:47 26.9 °C 7.3 °C 1007.3 hPa WNW 18.2 km/h 22.2 km/h 29 % 0 mm
15:52 26.7 °C 7.7 °C 1007 hPa NNW 11.4 km/h 11.4 km/h 30 % 0 mm
15:57 26.7 °C 7.7 °C 1007 hPa NNW 12.6 km/h 20.4 km/h 30 % 0 mm
16:02 26.9 °C 7.8 °C 1007 hPa North 10.1 km/h 14.8 km/h 30 % 0 mm
16:07 26.9 °C 7.8 °C 1007 hPa NW 14.3 km/h 19.3 km/h 30 % 0 mm
16:12 26.9 °C 7.8 °C 1006.7 hPa North 12.2 km/h 20.4 km/h 30 % 0 mm
16:17 27.4 °C 7.8 °C 1006.7 hPa WNW 9.7 km/h 16.7 km/h 29 % 0 mm
16:22 27.6 °C 8.4 °C 1006.7 hPa NW 12.2 km/h 22.5 km/h 30 % 0 mm
16:27 27.6 °C 7.9 °C 1006.7 hPa North 14.8 km/h 18.5 km/h 29 % 0 mm
16:32 27.7 °C 7 °C 1006.7 hPa North 13.2 km/h 18.5 km/h 27 % 0 mm
16:37 27.3 °C 7.7 °C 1006.7 hPa WNW 13.8 km/h 17.7 km/h 29 % 0 mm
16:42 27.1 °C 7 °C 1006.3 hPa NW 6.4 km/h 7.4 km/h 28 % 0 mm
16:47 27.2 °C 7.6 °C 1006.3 hPa NW 15.1 km/h 24.1 km/h 29 % 0 mm
16:52 27.4 °C 7.8 °C 1006.3 hPa WNW 7.4 km/h 17.7 km/h 29 % 0 mm
16:57 27.5 °C 7.3 °C 1006.3 hPa WNW 12.2 km/h 18.5 km/h 28 % 0 mm
17:02 27.7 °C 7.5 °C 1006.3 hPa NNW 11.7 km/h 18.5 km/h 28 % 0 mm
17:07 27.8 °C 7.6 °C 1006.3 hPa NW 10.9 km/h 12.9 km/h 28 % 0 mm
17:13 27.6 °C 7.4 °C 1006.3 hPa NNW 16.1 km/h 18.5 km/h 28 % 0 mm
17:17 27.8 °C 7.1 °C 1006 hPa WNW 9.8 km/h 14.8 km/h 27 % 0 mm
17:22 27.9 °C 7.7 °C 1006 hPa NNW 15.1 km/h 18.5 km/h 28 % 0 mm
17:28 27.8 °C 7.7 °C 1006 hPa NNW 9.3 km/h 14.8 km/h 28 % 0 mm
17:32 27.9 °C 7.7 °C 1006 hPa NW 6.1 km/h 13 km/h 28 % 0 mm
17:37 28.2 °C 7.4 °C 1005.6 hPa North 13 km/h 14.5 km/h 27 % 0 mm
17:43 27.8 °C 7.1 °C 1005.6 hPa WNW 10 km/h 14.8 km/h 27 % 0 mm
17:48 27.9 °C 6.6 °C 1005.6 hPa WNW 9.8 km/h 13 km/h 26 % 0 mm
17:53 27.7 °C 7 °C 1005.6 hPa NW 11.4 km/h 16.7 km/h 27 % 0 mm
17:58 27.6 °C 6.9 °C 1005.6 hPa West 13 km/h 18.5 km/h 27 % 0 mm
18:03 27.9 °C 7.2 °C 1005.6 hPa NNW 9.7 km/h 13 km/h 27 % 0 mm
18:08 27.5 °C 6.8 °C 1005.6 hPa North 7.7 km/h 14.8 km/h 27 % 0 mm
18:12 27.6 °C 6.9 °C 1005.6 hPa NNW 8.9 km/h 16.7 km/h 27 % 0 mm
18:18 27.9 °C 7.2 °C 1005.6 hPa North 6.1 km/h 16.1 km/h 27 % 0 mm
18:23 28 °C 6.7 °C 1005.6 hPa NNE 16.1 km/h 18.5 km/h 26 % 0 mm
18:28 27.8 °C 6.6 °C 1005.6 hPa NW 19.2 km/h 25.9 km/h 26 % 0 mm
18:33 27 °C 6.4 °C 1005.6 hPa WNW 10.1 km/h 14.8 km/h 27 % 0 mm
18:38 27.1 °C 7 °C 1005.3 hPa North 6.9 km/h 14.8 km/h 28 % 0 mm
18:43 27.4 °C 6.7 °C 1005.6 hPa NW 13.5 km/h 18.5 km/h 27 % 0 mm
18:53 27.4 °C 7.3 °C 1005.3 hPa WNW 18.5 km/h 18.5 km/h 28 % 0 mm
18:58 27.3 °C 7.2 °C 1005.3 hPa North 10.1 km/h 20.4 km/h 28 % 0 mm
19:03 27.2 °C 7.1 °C 1005.3 hPa NNW 8.7 km/h 9.3 km/h 28 % 0 mm
19:08 27.2 °C 6.6 °C 1005.3 hPa North 9.8 km/h 13 km/h 27 % 0 mm
19:13 27.3 °C 6.6 °C 1005.6 hPa WNW 13 km/h 20.4 km/h 27 % 0 mm
19:18 27.3 °C 6.1 °C 1005.6 hPa NNW 8.2 km/h 14.8 km/h 26 % 0 mm
19:23 27.4 °C 6.7 °C 1005.6 hPa WNW 9.8 km/h 14.8 km/h 27 % 0 mm
19:28 27.3 °C 6.6 °C 1005.3 hPa NW 13.4 km/h 18.5 km/h 27 % 0 mm
19:33 27.1 °C 6.5 °C 1005.6 hPa NW 9.3 km/h 14.8 km/h 27 % 0 mm
19:38 26.9 °C 6.3 °C 1005.6 hPa WNW 6.3 km/h 9.3 km/h 27 % 0 mm
19:43 26.9 °C 6.3 °C 1005.6 hPa NW 12.6 km/h 18.5 km/h 27 % 0 mm
19:48 26.8 °C 6.7 °C 1005.6 hPa NW 7.4 km/h 14.8 km/h 28 % 0 mm
19:53 26.6 °C 6.6 °C 1005.6 hPa NW 11.1 km/h 18.5 km/h 28 % 0 mm
19:58 26.5 °C 6.5 °C 1005.6 hPa NW 12.7 km/h 14.8 km/h 28 % 0 mm
20:03 26.4 °C 6.4 °C 1005.6 hPa NW 8.2 km/h 14.8 km/h 28 % 0 mm
20:08 26.3 °C 6.3 °C 1005.3 hPa WNW 11.1 km/h 16.7 km/h 28 % 0 mm
20:13 26.1 °C 6.2 °C 1005.6 hPa NW 8.5 km/h 13 km/h 28 % 0 mm
20:18 25.9 °C 6.5 °C 1005.6 hPa North 4.2 km/h 5.6 km/h 29 % 0 mm
20:23 25.7 °C 6.3 °C 1005.6 hPa NW 5 km/h 5.6 km/h 29 % 0 mm
20:28 25.6 °C 6.2 °C 1005.6 hPa NW 7.2 km/h 13 km/h 29 % 0 mm
20:33 25.4 °C 6.1 °C 1005.6 hPa NW 6.4 km/h 14.8 km/h 29 % 0 mm
20:38 25.2 °C 5.9 °C 1005.6 hPa NW 5.3 km/h 9.3 km/h 29 % 0 mm
20:43 25.1 °C 6.3 °C 1005.6 hPa North 6 km/h 9.3 km/h 30 % 0 mm
20:48 25 °C 6.2 °C 1005.6 hPa NW 8.2 km/h 11.1 km/h 30 % 0 mm
20:53 24.9 °C 6.2 °C 1005.6 hPa NW 6.3 km/h 11.1 km/h 30 % 0 mm
20:58 24.8 °C 6.1 °C 1005.6 hPa NW 4 km/h 5.6 km/h 30 % 0 mm
21:03 24.7 °C 5.9 °C 1005.6 hPa NW 7.2 km/h 7.4 km/h 30 % 0 mm
21:08 24.7 °C 5.9 °C 1005.6 hPa North 7.2 km/h 11.1 km/h 30 % 0 mm
21:13 24.6 °C 6.3 °C 1005.3 hPa NW 7.1 km/h 9.3 km/h 31 % 0 mm
21:18 24.5 °C 6.3 °C 1005.3 hPa NW 5 km/h 6.4 km/h 31 % 0 mm
21:23 24.4 °C 6.2 °C 1005.3 hPa North 3.4 km/h 5.6 km/h 31 % 0 mm
21:28 24.2 °C 6.5 °C 1005.3 hPa Calm   1.9 km/h 32 % 0 mm
21:33 23.9 °C 6.7 °C 1005.3 hPa NW 0.2 km/h 1.9 km/h 33 % 0 mm
21:38 23.6 °C 6.3 °C 1005.3 hPa NW 1.6 km/h 3.2 km/h 33 % 0 mm
21:43 23.2 °C 6.5 °C 1005.3 hPa NW 5.5 km/h 5.6 km/h 34 % 0 mm
21:48 23.1 °C 6.8 °C 1005.3 hPa NW 0.6 km/h 5.6 km/h 35 % 0 mm
21:53 22.7 °C 6.8 °C 1005.3 hPa North 6.9 km/h 11.1 km/h 36 % 0 mm
21:58 21.9 °C 8.8 °C 1005.6 hPa SSW 6.9 km/h 11.1 km/h 43 % 0 mm
22:03 21.3 °C 10.1 °C 1005.6 hPa SSE 9 km/h 16.7 km/h 49 % 0 mm
22:08 20.7 °C 10.4 °C 1005.6 hPa South 7.6 km/h 9.7 km/h 52 % 0 mm
22:13 20.2 °C 10.3 °C 1005.6 hPa South 7.4 km/h 11.1 km/h 53 % 0 mm
22:18 19.9 °C 10.6 °C 1005.6 hPa South 7.7 km/h 8 km/h 55 % 0 mm
22:41 19.1 °C 10.9 °C 1005.3 hPa South 9.3 km/h 9.3 km/h 59 % 0 mm
22:46 18.9 °C 10.7 °C 1005.3 hPa South 9.3 km/h 9.3 km/h 59 % 0 mm
22:51 18.7 °C 10.8 °C 1005.3 hPa South 4 km/h 5.6 km/h 60 % 0 mm
22:56 18.6 °C 10.6 °C 1005.3 hPa Calm     60 % 0 mm
23:01 18.4 °C 10.7 °C 1005 hPa South 2.3 km/h 5.6 km/h 61 % 0 mm
23:06 18.2 °C 10.8 °C 1005 hPa Calm   1.9 km/h 62 % 0 mm
23:11 18.1 °C 10.7 °C 1005 hPa South 3.2 km/h 5.6 km/h 62 % 0 mm
23:16 17.9 °C 10.7 °C 1005 hPa Calm   3.7 km/h 63 % 0 mm
23:21 17.8 °C 10.9 °C 1005 hPa South 0.8 km/h 3.2 km/h 64 % 0 mm
23:26 17.7 °C 11 °C 1004.6 hPa South 2.4 km/h 5.6 km/h 65 % 0 mm
23:31 17.6 °C 10.9 °C 1004.6 hPa Calm     65 % 0 mm
23:36 17.3 °C 10.7 °C 1004.6 hPa Calm     65 % 0 mm
23:41 17.1 °C 10.7 °C 1004.6 hPa Calm     66 % 0 mm
23:46 16.9 °C 10.6 °C 1004.3 hPa Calm     66 % 0 mm
23:51 16.7 °C 10.6 °C 1004.3 hPa Calm     67 % 0 mm
23:56 16.3 °C 10.3 °C 1004.3 hPa South 2.4 km/h 3.7 km/h 68 % 0 mm
Ararat Weather
Compliments of Weather Underground - 2.25 mb
Click here to send mail.


ABOUT

Live weather data from Ararat, Victoria, Australia, 3377
Data uploaded from Cumulus every 5 minutes to Weather Underground.
This site then downloads the raw data for formatting and display.
Metric and imperial data can be displayed. Graphs and historical data available.
Includes Sun and Moon times and rain image live from BOM.

Check out Ararat Weather on Facebook, Twitter and Google +

Help support ongoing costs by checking out the ads





Follow @AraratWeather